Time;durP1;ratioP1;P1;durP2;ratioP2;P2;SDS_P1;SDS_P2;PMS_P1;PMS_P2;Temp;Humidity;BMP_temperature;BMP_pressure;BME280_temperature;BME280_humidity;BME280_pressure;Samples;Min_cycle;Max_cycle;Signal;HPM_P1;HPM_P2
2020/12/15 00:01:45;;;;;;;17.53;12.03;;;7.50;99.90;;;;;;5077577;28;20514;-60
2020/12/15 00:04:11;;;;;;;19.50;12.70;;;7.50;99.90;;;;;;5077139;28;20484;-60
2020/12/15 00:06:37;;;;;;;14.73;11.80;;;7.40;99.90;;;;;;5077535;28;20482;-61
2020/12/15 00:09:04;;;;;;;18.17;11.70;;;7.40;99.90;;;;;;5077809;28;20454;-61
2020/12/15 00:11:30;;;;;;;15.20;10.97;;;7.30;99.90;;;;;;5077352;28;20506;-61
2020/12/15 00:13:56;;;;;;;15.73;12.20;;;7.20;99.90;;;;;;5078385;28;20515;-60
2020/12/15 00:16:22;;;;;;;19.30;13.23;;;7.00;99.90;;;;;;5077490;28;20482;-69
2020/12/15 00:18:48;;;;;;;16.37;11.63;;;7.00;99.90;;;;;;5077195;28;20594;-60
2020/12/15 00:21:21;;;;;;;16.60;11.77;;;6.90;99.90;;;;;;5077293;28;20450;-60
2020/12/15 00:23:49;;;;;;;22.57;12.07;;;6.90;99.90;;;;;;5077922;28;20937;-60
2020/12/15 00:26:16;;;;;;;19.60;12.43;;;6.90;99.90;;;;;;5077144;28;20451;-62
2020/12/15 00:28:42;;;;;;;16.33;11.60;;;6.90;99.90;;;;;;5076892;28;20451;-69
2020/12/15 00:31:08;;;;;;;16.73;11.23;;;6.70;99.90;;;;;;5076792;28;20454;-61
2020/12/15 00:33:34;;;;;;;15.90;11.67;;;6.70;99.90;;;;;;5076900;28;20450;-69
2020/12/15 00:36:00;;;;;;;14.63;12.00;;;6.70;99.90;;;;;;5076729;28;20549;-69
2020/12/15 00:38:27;;;;;;;16.20;12.13;;;6.70;99.90;;;;;;5076995;28;20535;-69
2020/12/15 00:40:53;;;;;;;12.77;10.13;;;6.70;99.90;;;;;;5076912;28;20454;-69
2020/12/15 00:43:20;;;;;;;20.47;12.20;;;6.70;99.90;;;;;;5076941;28;20780;-69
2020/12/15 00:45:46;;;;;;;23.27;12.23;;;6.70;99.90;;;;;;5076637;28;20953;-69
2020/12/15 00:48:12;;;;;;;16.63;11.30;;;6.70;99.90;;;;;;5077175;28;20486;-68
2020/12/15 00:50:38;;;;;;;16.70;11.70;;;6.70;99.90;;;;;;5076801;28;20516;-69
2020/12/15 00:53:05;;;;;;;16.43;12.10;;;6.70;99.90;;;;;;5077112;28;20492;-69
2020/12/15 00:55:31;;;;;;;14.00;10.43;;;6.70;99.90;;;;;;5078579;28;20488;-62
2020/12/15 00:57:57;;;;;;;14.57;11.07;;;6.60;99.90;;;;;;5078170;28;20450;-61
2020/12/15 01:00:24;;;;;;;14.73;11.50;;;6.50;99.90;;;;;;5076722;28;20543;-69
2020/12/15 01:02:50;;;;;;;14.53;10.47;;;6.60;99.90;;;;;;5076318;28;20474;-70
2020/12/15 01:05:17;;;;;;;16.50;11.53;;;6.60;99.90;;;;;;5076083;28;20523;-62
2020/12/15 01:07:43;;;;;;;13.70;11.30;;;6.70;99.90;;;;;;5076276;28;20528;-61
2020/12/15 01:10:09;;;;;;;15.73;11.47;;;6.70;99.90;;;;;;5076307;28;20480;-62
2020/12/15 01:12:36;;;;;;;18.77;12.73;;;6.70;99.90;;;;;;5075993;28;20511;-61
2020/12/15 01:15:02;;;;;;;15.70;10.97;;;6.60;99.90;;;;;;5076374;28;20992;-61
2020/12/15 01:17:29;;;;;;;16.60;12.10;;;6.60;99.90;;;;;;5076102;28;20870;-69
2020/12/15 01:19:55;;;;;;;14.73;11.13;;;6.60;99.90;;;;;;5076198;28;20506;-69
2020/12/15 01:22:21;;;;;;;17.70;12.10;;;6.50;99.90;;;;;;5075986;28;20929;-69
2020/12/15 01:24:47;;;;;;;19.47;11.67;;;6.50;99.90;;;;;;5076293;28;20454;-69
2020/12/15 01:27:13;;;;;;;15.90;12.23;;;6.60;99.90;;;;;;5075979;28;20451;-61
2020/12/15 01:29:39;;;;;;;15.60;11.70;;;6.50;99.90;;;;;;5075755;28;20965;-69
2020/12/15 01:32:05;;;;;;;16.80;11.40;;;6.50;99.90;;;;;;5075677;28;20884;-69
2020/12/15 01:34:32;;;;;;;16.33;11.90;;;6.50;99.90;;;;;;5075965;28;20497;-68
2020/12/15 01:37:03;;;;;;;13.47;10.97;;;6.50;99.90;;;;;;5075234;28;20482;-67
2020/12/15 01:39:29;;;;;;;14.97;10.80;;;6.50;99.90;;;;;;5075664;28;20466;-67
2020/12/15 01:41:56;;;;;;;17.97;11.93;;;6.40;99.90;;;;;;5075175;28;20454;-61
2020/12/15 01:44:22;;;;;;;14.70;12.10;;;6.30;99.90;;;;;;5075530;28;20454;-60
2020/12/15 01:46:49;;;;;;;14.90;11.03;;;6.30;99.90;;;;;;5075588;28;20484;-68
2020/12/15 01:49:18;;;;;;;14.80;10.87;;;6.30;99.90;;;;;;5075688;28;20454;-66
2020/12/15 01:51:45;;;;;;;17.13;13.03;;;6.40;99.90;;;;;;5075601;28;20512;-68
2020/12/15 01:54:12;;;;;;;17.07;11.40;;;6.40;99.90;;;;;;5075173;28;20454;-68
2020/12/15 01:56:38;;;;;;;16.27;11.80;;;6.40;99.90;;;;;;5075325;28;20453;-67
2020/12/15 01:59:05;;;;;;;15.50;12.13;;;6.40;99.90;;;;;;5075211;28;20474;-68
2020/12/15 02:01:42;;;;;;;14.20;11.47;;;6.40;99.90;;;;;;5075523;28;20915;-62
2020/12/15 02:04:08;;;;;;;15.50;10.40;;;6.30;99.90;;;;;;5075257;28;20469;-61
2020/12/15 02:06:34;;;;;;;16.97;11.87;;;6.40;99.90;;;;;;5075372;28;20450;-62
2020/12/15 02:09:01;;;;;;;14.07;11.30;;;6.30;99.90;;;;;;5075193;28;20539;-59
2020/12/15 02:11:29;;;;;;;20.80;11.40;;;6.30;99.90;;;;;;5075258;28;20457;-62
2020/12/15 02:13:55;;;;;;;14.63;11.10;;;6.20;99.90;;;;;;5075160;28;20481;-61
2020/12/15 02:16:22;;;;;;;16.20;11.70;;;6.20;99.90;;;;;;5075487;28;20454;-61
2020/12/15 02:18:48;;;;;;;15.70;11.13;;;6.30;99.90;;;;;;5074951;28;20478;-67
2020/12/15 02:21:14;;;;;;;14.77;11.00;;;6.30;99.90;;;;;;5075140;28;20450;-61
2020/12/15 02:23:40;;;;;;;14.33;10.77;;;6.30;99.90;;;;;;5075651;28;20489;-61
2020/12/15 02:26:08;;;;;;;16.93;11.97;;;6.30;99.90;;;;;;5075167;28;20488;-67
2020/12/15 02:28:35;;;;;;;16.13;11.67;;;6.30;99.90;;;;;;5075174;28;20507;-61
2020/12/15 02:31:02;;;;;;;14.03;10.30;;;6.30;99.90;;;;;;5074883;28;20454;-61
2020/12/15 02:33:28;;;;;;;14.50;11.20;;;6.20;99.90;;;;;;5075355;28;20466;-61
2020/12/15 02:35:54;;;;;;;15.40;11.50;;;6.30;99.90;;;;;;5075208;28;20574;-61
2020/12/15 02:38:20;;;;;;;16.07;11.57;;;6.30;99.90;;;;;;5074505;28;20887;-67
2020/12/15 02:40:47;;;;;;;14.50;11.27;;;6.30;99.90;;;;;;5074888;28;20450;-67
2020/12/15 02:43:13;;;;;;;16.93;12.17;;;6.30;99.90;;;;;;5074843;28;20511;-68
2020/12/15 02:45:39;;;;;;;14.30;11.47;;;6.20;99.90;;;;;;5074828;28;20838;-67
2020/12/15 02:48:05;;;;;;;15.70;10.60;;;6.20;99.90;;;;;;5075736;28;20525;-67
2020/12/15 02:50:32;;;;;;;15.63;11.77;;;6.20;99.90;;;;;;5074801;28;20461;-68
2020/12/15 02:52:58;;;;;;;14.93;10.97;;;6.20;99.90;;;;;;5076657;28;20458;-67
2020/12/15 02:55:24;;;;;;;13.93;11.07;;;6.30;99.90;;;;;;5079475;28;20457;-67
2020/12/15 02:57:51;;;;;;;17.23;11.43;;;6.30;99.90;;;;;;5079008;28;20454;-68
2020/12/15 03:00:18;;;;;;;15.50;11.27;;;6.30;99.90;;;;;;5079093;28;20858;-67
2020/12/15 03:02:46;;;;;;;14.93;11.23;;;6.40;99.90;;;;;;5078966;28;20835;-67
2020/12/15 03:05:12;;;;;;;14.40;11.30;;;6.40;99.90;;;;;;5078708;28;20874;-67
2020/12/15 03:07:39;;;;;;;14.23;10.80;;;6.40;99.90;;;;;;5078802;28;20522;-67
2020/12/15 03:10:05;;;;;;;16.37;12.60;;;6.40;99.90;;;;;;5078468;28;20511;-66
2020/12/15 03:12:32;;;;;;;15.50;11.23;;;6.40;99.90;;;;;;5078248;28;20458;-67
2020/12/15 03:14:59;;;;;;;19.63;11.70;;;6.30;99.90;;;;;;5078290;28;20918;-67
2020/12/15 03:17:25;;;;;;;16.80;10.93;;;6.30;99.90;;;;;;5078328;28;20453;-67
2020/12/15 03:19:51;;;;;;;20.40;11.93;;;6.30;99.90;;;;;;5078688;28;20478;-67
2020/12/15 03:22:17;;;;;;;17.90;12.87;;;6.30;99.90;;;;;;5078685;28;20446;-65
2020/12/15 03:24:43;;;;;;;15.33;12.20;;;6.30;99.90;;;;;;5078691;28;20539;-61
2020/12/15 03:27:09;;;;;;;20.20;12.10;;;6.30;99.90;;;;;;5078365;28;20845;-61
2020/12/15 03:29:35;;;;;;;18.60;12.50;;;6.30;99.90;;;;;;5078967;28;20446;-62
2020/12/15 03:32:04;;;;;;;15.27;11.47;;;6.30;99.90;;;;;;5078178;28;20458;-62
2020/12/15 03:34:30;;;;;;;18.10;12.70;;;6.30;99.90;;;;;;5078071;28;20454;-61
2020/12/15 03:36:56;;;;;;;14.70;11.60;;;6.20;99.90;;;;;;5077726;28;21044;-62
2020/12/15 03:39:22;;;;;;;19.00;13.20;;;6.20;99.90;;;;;;5077863;28;20562;-61
2020/12/15 03:41:48;;;;;;;16.60;12.63;;;6.20;99.90;;;;;;5077863;28;20498;-62
2020/12/15 03:44:14;;;;;;;17.57;13.00;;;6.20;99.90;;;;;;5077916;28;20454;-67
2020/12/15 03:46:40;;;;;;;17.57;12.60;;;6.30;99.90;;;;;;5077520;28;20923;-67
2020/12/15 03:49:07;;;;;;;16.67;13.47;;;6.20;99.90;;;;;;5077817;28;20549;-68
2020/12/15 03:51:33;;;;;;;16.03;12.73;;;6.20;99.90;;;;;;5077680;28;20450;-64
2020/12/15 03:53:59;;;;;;;18.50;12.97;;;6.20;99.90;;;;;;5077892;28;20908;-61
2020/12/15 03:56:25;;;;;;;16.30;13.20;;;6.10;99.90;;;;;;5077697;28;20531;-61
2020/12/15 03:58:51;;;;;;;17.07;12.60;;;6.10;99.90;;;;;;5077836;28;20478;-67
2020/12/15 04:01:17;;;;;;;16.43;12.20;;;6.20;99.90;;;;;;5080165;28;20461;-67
2020/12/15 04:03:43;;;;;;;19.30;12.10;;;6.20;99.90;;;;;;5077754;28;20454;-67
2020/12/15 04:06:10;;;;;;;18.00;13.43;;;6.20;99.90;;;;;;5076640;28;20512;-66
2020/12/15 04:08:36;;;;;;;15.70;12.60;;;6.20;99.90;;;;;;5078745;28;20804;-67
2020/12/15 04:11:03;;;;;;;17.47;12.87;;;6.10;99.90;;;;;;5076947;28;20946;-67
2020/12/15 04:13:29;;;;;;;16.50;12.83;;;6.00;99.90;;;;;;5077644;28;20450;-67
2020/12/15 04:15:55;;;;;;;16.20;12.70;;;6.00;99.90;;;;;;5077632;28;20511;-61
2020/12/15 04:18:21;;;;;;;19.73;12.00;;;6.10;99.90;;;;;;5077565;28;20449;-67
2020/12/15 04:20:47;;;;;;;15.90;12.63;;;6.10;99.90;;;;;;5077166;28;20488;-67
2020/12/15 04:23:14;;;;;;;19.10;12.70;;;6.10;99.90;;;;;;5077712;28;20517;-67
2020/12/15 04:25:51;;;;;;;18.80;12.90;;;6.10;99.90;;;;;;5077622;28;20508;-67
2020/12/15 04:28:17;;;;;;;19.50;13.90;;;6.20;99.90;;;;;;5077355;28;20716;-68
2020/12/15 04:30:44;;;;;;;20.33;13.47;;;6.20;99.90;;;;;;5077030;28;20832;-67
2020/12/15 04:33:10;;;;;;;19.10;13.03;;;6.20;99.90;;;;;;5076845;28;20945;-67
2020/12/15 04:35:36;;;;;;;19.60;13.20;;;6.20;99.90;;;;;;5076993;28;20458;-67
2020/12/15 04:38:02;;;;;;;20.77;12.70;;;6.20;99.90;;;;;;5076624;28;20490;-61
2020/12/15 04:40:32;;;;;;;17.90;13.07;;;6.20;99.90;;;;;;5077003;28;20874;-62
2020/12/15 04:43:00;;;;;;;18.83;13.87;;;6.10;99.90;;;;;;5076719;28;20545;-61
2020/12/15 04:45:26;;;;;;;18.63;13.50;;;6.10;99.90;;;;;;5077125;28;20454;-67
2020/12/15 04:48:00;;;;;;;21.33;13.60;;;6.10;99.90;;;;;;5076808;28;20454;-61
2020/12/15 04:50:32;;;;;;;19.23;14.47;;;6.10;99.90;;;;;;5076787;28;20524;-66
2020/12/15 04:53:07;;;;;;;25.17;13.47;;;6.10;99.90;;;;;;5077003;28;20446;-67
2020/12/15 04:55:35;;;;;;;23.77;14.07;;;6.00;99.90;;;;;;5076870;28;20443;-67
2020/12/15 04:58:03;;;;;;;21.37;13.40;;;6.00;99.90;;;;;;5076744;28;20450;-66
2020/12/15 05:00:30;;;;;;;20.30;14.00;;;6.00;99.90;;;;;;5077381;28;20485;-67
2020/12/15 05:02:57;;;;;;;18.03;12.77;;;6.00;99.90;;;;;;5077635;28;20492;-67
2020/12/15 05:05:24;;;;;;;19.67;13.83;;;6.00;99.90;;;;;;5079812;28;20519;-67
2020/12/15 05:07:51;;;;;;;20.00;13.20;;;6.00;99.90;;;;;;5080331;28;20454;-67
2020/12/15 05:10:19;;;;;;;21.47;13.30;;;6.00;99.90;;;;;;5078047;28;20465;-61
2020/12/15 05:12:47;;;;;;;19.77;13.47;;;5.90;99.90;;;;;;5077223;28;20543;-62
2020/12/15 05:15:14;;;;;;;21.50;14.40;;;5.90;99.90;;;;;;5076418;28;20458;-61
2020/12/15 05:17:41;;;;;;;19.40;13.87;;;5.90;99.90;;;;;;5075469;28;20531;-62
2020/12/15 05:20:08;;;;;;;17.87;13.37;;;6.00;99.90;;;;;;5077501;28;20493;-61
2020/12/15 05:22:39;;;;;;;21.03;14.60;;;5.90;99.90;;;;;;5076890;28;20454;-62
2020/12/15 05:25:05;;;;;;;19.90;13.77;;;5.90;99.90;;;;;;5077097;28;20458;-62
2020/12/15 05:27:31;;;;;;;20.43;14.10;;;5.90;99.90;;;;;;5076470;28;20519;-61
2020/12/15 05:30:07;;;;;;;20.30;13.70;;;5.90;99.90;;;;;;5076441;28;20532;-61
2020/12/15 05:32:33;;;;;;;18.00;13.33;;;5.90;99.90;;;;;;5076180;28;20785;-61
2020/12/15 05:35:06;;;;;;;19.33;12.57;;;6.00;99.90;;;;;;5077004;28;20458;-61
2020/12/15 05:37:32;;;;;;;20.93;14.00;;;6.00;99.90;;;;;;5076517;28;20482;-61
2020/12/15 05:40:00;;;;;;;22.33;14.23;;;5.90;99.90;;;;;;5076125;28;20489;-61
2020/12/15 05:42:27;;;;;;;17.57;13.20;;;6.00;99.90;;;;;;5076910;28;20866;-61
2020/12/15 05:44:56;;;;;;;22.40;15.23;;;6.00;99.90;;;;;;5077373;28;20454;-61
2020/12/15 05:47:23;;;;;;;20.50;13.40;;;6.00;99.90;;;;;;5078641;28;20469;-68
2020/12/15 05:49:52;;;;;;;20.40;14.00;;;6.00;99.90;;;;;;5077273;28;20461;-61
2020/12/15 05:52:24;;;;;;;21.43;16.07;;;5.90;99.90;;;;;;5075798;28;20450;-61
2020/12/15 05:54:51;;;;;;;19.00;13.80;;;5.80;99.90;;;;;;5076795;28;20438;-61
2020/12/15 05:57:23;;;;;;;19.77;14.47;;;5.80;99.90;;;;;;5075895;28;20900;-67
2020/12/15 05:59:49;;;;;;;21.53;15.27;;;5.80;99.90;;;;;;5075601;28;20473;-61
2020/12/15 06:02:15;;;;;;;20.53;14.10;;;5.90;99.90;;;;;;5075424;28;20522;-68
2020/12/15 06:04:42;;;;;;;18.10;14.10;;;5.90;99.90;;;;;;5075691;28;20454;-61
2020/12/15 06:07:10;;;;;;;20.27;13.70;;;5.90;99.90;;;;;;5075764;28;20462;-66
2020/12/15 06:09:36;;;;;;;22.40;14.43;;;5.90;99.90;;;;;;5075307;28;20930;-67
2020/12/15 06:12:04;;;;;;;21.53;15.10;;;5.90;99.90;;;;;;5075019;28;20454;-67
2020/12/15 06:14:30;;;;;;;22.13;15.00;;;5.80;99.90;;;;;;5075204;28;20462;-67
2020/12/15 06:16:56;;;;;;;20.87;14.13;;;5.80;99.90;;;;;;5075512;28;20457;-67
2020/12/15 06:19:23;;;;;;;20.87;13.97;;;5.80;99.90;;;;;;5075620;28;20854;-62
2020/12/15 06:21:53;;;;;;;22.57;15.77;;;5.90;99.90;;;;;;5075221;28;20454;-61
2020/12/15 06:24:27;;;;;;;19.50;14.60;;;5.90;99.90;;;;;;5075073;28;20465;-67
2020/12/15 06:26:58;;;;;;;25.27;15.43;;;5.90;99.90;;;;;;5075099;28;20511;-66
2020/12/15 06:29:29;;;;;;;19.40;13.33;;;5.90;99.90;;;;;;5074438;28;20838;-66
2020/12/15 06:31:56;;;;;;;22.10;14.03;;;6.00;99.90;;;;;;5074911;28;20473;-67
2020/12/15 06:34:27;;;;;;;20.80;14.20;;;6.00;99.90;;;;;;5074880;28;20464;-67
2020/12/15 06:36:55;;;;;;;26.23;14.60;;;6.00;99.90;;;;;;5074591;28;20517;-66
2020/12/15 06:39:23;;;;;;;21.80;13.87;;;6.00;99.90;;;;;;5075078;28;20474;-67
2020/12/15 06:42:00;;;;;;;21.03;14.20;;;6.00;99.90;;;;;;5075305;28;20931;-67
2020/12/15 06:44:34;;;;;;;23.20;14.93;;;6.00;99.90;;;;;;5075109;28;20730;-61
2020/12/15 06:47:01;;;;;;;22.40;14.37;;;6.10;99.90;;;;;;5075998;28;20496;-61
2020/12/15 06:49:29;;;;;;;20.07;14.07;;;6.10;99.90;;;;;;5075552;28;20460;-62
2020/12/15 06:51:57;;;;;;;20.23;13.83;;;6.10;99.90;;;;;;5075606;28;20458;-61
2020/12/15 06:54:28;;;;;;;22.20;14.97;;;6.10;99.90;;;;;;5075062;28;20458;-60
2020/12/15 06:57:01;;;;;;;23.57;14.90;;;6.20;99.90;;;;;;5075862;28;20786;-61
2020/12/15 06:59:35;;;;;;;20.23;14.20;;;6.20;99.90;;;;;;5074240;28;20599;-62
2020/12/15 07:02:09;;;;;;;23.63;14.97;;;6.20;99.90;;;;;;5074891;28;20547;-61
2020/12/15 07:04:41;;;;;;;20.77;15.10;;;6.20;99.90;;;;;;5074617;28;20565;-61
2020/12/15 07:07:08;;;;;;;23.10;15.17;;;6.20;99.90;;;;;;5074479;28;20527;-61
2020/12/15 07:09:34;;;;;;;19.80;13.63;;;6.20;99.90;;;;;;5074666;28;20454;-61
2020/12/15 07:12:03;;;;;;;23.13;15.33;;;6.20;99.90;;;;;;5075490;28;20469;-62
2020/12/15 07:14:29;;;;;;;20.83;15.70;;;6.20;99.90;;;;;;5074742;28;20534;-62
2020/12/15 07:16:55;;;;;;;20.00;14.40;;;6.20;99.90;;;;;;5074440;28;20450;-62
2020/12/15 07:19:22;;;;;;;20.93;14.80;;;6.20;99.90;;;;;;5074694;28;20546;-61
2020/12/15 07:21:48;;;;;;;23.07;15.63;;;6.20;99.90;;;;;;5074614;28;20461;-61
2020/12/15 07:24:15;;;;;;;22.47;15.37;;;6.30;99.90;;;;;;5077497;28;20454;-61
2020/12/15 07:26:43;;;;;;;22.13;15.27;;;6.30;99.90;;;;;;5076800;28;20450;-61
2020/12/15 07:29:09;;;;;;;20.57;15.00;;;6.30;99.90;;;;;;5076789;28;20473;-61
2020/12/15 07:31:35;;;;;;;21.10;14.10;;;6.30;99.90;;;;;;5075300;28;20519;-60
2020/12/15 07:34:10;;;;;;;21.03;14.50;;;6.30;99.90;;;;;;5077496;28;20458;-61
2020/12/15 07:36:41;;;;;;;22.17;15.67;;;6.30;99.90;;;;;;5076138;28;20543;-62
2020/12/15 07:39:08;;;;;;;21.27;14.30;;;6.20;99.90;;;;;;5078231;28;20492;-60
2020/12/15 07:41:37;;;;;;;21.63;14.97;;;6.20;99.90;;;;;;5077924;28;20493;-61
2020/12/15 07:44:07;;;;;;;22.70;15.33;;;6.20;99.90;;;;;;5078419;28;20453;-66
2020/12/15 07:46:33;;;;;;;19.97;14.57;;;6.20;99.90;;;;;;5078637;28;20462;-66
2020/12/15 07:49:03;;;;;;;21.33;15.03;;;6.20;99.90;;;;;;5078247;28;20454;-67
2020/12/15 07:51:30;;;;;;;23.33;16.33;;;6.20;99.90;;;;;;5078026;28;20454;-61
2020/12/15 07:53:57;;;;;;;22.53;15.17;;;6.20;99.90;;;;;;5077832;28;20469;-66
2020/12/15 07:56:24;;;;;;;22.83;16.73;;;6.20;99.90;;;;;;5078223;28;20458;-66
2020/12/15 07:58:52;;;;;;;26.87;15.47;;;6.20;99.90;;;;;;5077480;28;20534;-67
2020/12/15 08:01:22;;;;;;;23.10;16.00;;;6.20;99.90;;;;;;5078358;28;20796;-67
2020/12/15 08:03:48;;;;;;;21.87;15.93;;;6.20;99.90;;;;;;5077729;28;20458;-65
2020/12/15 08:06:15;;;;;;;22.10;15.10;;;6.20;99.90;;;;;;5077873;28;20912;-68
2020/12/15 08:08:45;;;;;;;20.73;15.53;;;6.20;99.90;;;;;;5077302;28;20565;-67
2020/12/15 08:11:15;;;;;;;22.87;15.73;;;6.20;99.90;;;;;;5077487;28;20454;-67
2020/12/15 08:13:41;;;;;;;22.07;15.53;;;6.20;99.90;;;;;;5077191;28;20482;-66
2020/12/15 08:16:08;;;;;;;22.67;15.63;;;6.20;99.90;;;;;;5077631;28;20458;-60
2020/12/15 08:18:35;;;;;;;22.77;14.87;;;6.20;99.90;;;;;;5077337;28;20758;-61
2020/12/15 08:21:03;;;;;;;27.33;15.20;;;6.20;99.90;;;;;;5077346;28;20486;-61
2020/12/15 08:23:31;;;;;;;24.67;15.90;;;6.20;99.90;;;;;;5077367;28;20799;-61
2020/12/15 08:25:57;;;;;;;25.17;15.77;;;6.30;99.90;;;;;;5076852;28;20465;-61
2020/12/15 08:28:24;;;;;;;21.80;15.17;;;6.20;99.90;;;;;;5077079;28;20455;-60
2020/12/15 08:30:52;;;;;;;25.03;16.30;;;6.20;99.90;;;;;;5076904;28;20455;-66
2020/12/15 08:33:23;;;;;;;26.23;17.40;;;6.20;99.90;;;;;;5077489;28;20462;-61
2020/12/15 08:35:50;;;;;;;21.60;15.30;;;6.30;99.90;;;;;;5076893;28;20454;-62
2020/12/15 08:38:16;;;;;;;22.37;15.77;;;6.30;99.90;;;;;;5077063;28;20446;-61
2020/12/15 08:40:44;;;;;;;22.27;14.97;;;6.30;99.90;;;;;;5076562;28;20804;-62
2020/12/15 08:43:11;;;;;;;20.07;15.00;;;6.40;99.90;;;;;;5077931;28;20454;-62
2020/12/15 08:45:37;;;;;;;23.40;14.67;;;6.50;99.90;;;;;;5076596;28;20476;-61
2020/12/15 08:48:03;;;;;;;25.40;15.60;;;6.50;99.90;;;;;;5076633;28;20458;-62
2020/12/15 08:50:31;;;;;;;25.83;16.70;;;6.50;99.90;;;;;;5077282;28;20454;-62
2020/12/15 08:53:05;;;;;;;26.70;16.50;;;6.40;99.90;;;;;;5079110;28;20908;-61
2020/12/15 08:55:32;;;;;;;23.13;16.03;;;6.40;99.90;;;;;;5080903;28;20454;-66
2020/12/15 08:57:59;;;;;;;19.80;14.57;;;6.40;99.90;;;;;;5080393;28;20493;-61
2020/12/15 09:00:25;;;;;;;21.87;15.53;;;6.40;99.90;;;;;;5077116;28;20493;-62
2020/12/15 09:02:51;;;;;;;21.10;15.60;;;6.40;99.90;;;;;;5078540;28;20510;-60
2020/12/15 09:05:17;;;;;;;23.60;14.80;;;6.40;99.90;;;;;;5077911;28;20469;-73
2020/12/15 09:07:44;;;;;;;24.50;14.97;;;6.50;99.90;;;;;;5078521;28;20462;-59
2020/12/15 09:10:12;;;;;;;24.60;15.50;;;6.40;99.90;;;;;;5081790;28;20454;-71
2020/12/15 09:12:42;;;;;;;24.57;16.23;;;6.50;99.90;;;;;;5081149;28;20781;-74
2020/12/15 09:15:08;;;;;;;22.10;14.50;;;6.60;99.90;;;;;;5081063;28;20466;-73
2020/12/15 09:17:34;;;;;;;23.30;14.80;;;6.60;99.90;;;;;;5077527;28;20488;-72
2020/12/15 09:20:00;;;;;;;20.40;15.07;;;6.50;99.90;;;;;;5080006;28;20478;-73
2020/12/15 09:22:27;;;;;;;20.83;15.43;;;6.60;99.90;;;;;;5079639;28;20466;-72
2020/12/15 09:24:54;;;;;;;19.20;14.27;;;6.70;99.90;;;;;;5075960;28;20466;-72
2020/12/15 09:27:22;;;;;;;23.10;15.90;;;6.80;99.90;;;;;;5076345;28;20462;-72
2020/12/15 09:29:49;;;;;;;23.57;17.17;;;6.90;99.90;;;;;;5076134;28;20761;-72
2020/12/15 09:32:17;;;;;;;21.33;14.97;;;6.90;99.90;;;;;;5076111;28;20462;-72
2020/12/15 09:34:44;;;;;;;22.93;14.90;;;6.90;99.90;;;;;;5076029;28;20542;-72
2020/12/15 09:37:10;;;;;;;26.10;16.17;;;7.00;99.90;;;;;;5076016;28;20528;-72
2020/12/15 09:39:36;;;;;;;32.23;16.47;;;7.00;99.90;;;;;;5075719;28;20477;-72
2020/12/15 09:42:04;;;;;;;24.33;15.20;;;6.90;99.90;;;;;;5076268;28;20454;-73
2020/12/15 09:44:31;;;;;;;21.37;15.23;;;7.00;99.90;;;;;;5076252;28;20491;-71
2020/12/15 09:46:57;;;;;;;23.80;16.50;;;7.10;99.90;;;;;;5075435;28;20911;-70
2020/12/15 09:49:23;;;;;;;20.83;15.30;;;7.20;99.90;;;;;;5075760;28;20486;-72
2020/12/15 09:51:49;;;;;;;20.10;15.40;;;7.20;99.90;;;;;;5075673;28;20469;-72
2020/12/15 09:54:16;;;;;;;23.90;14.97;;;7.20;99.90;;;;;;5076174;28;21018;-71
2020/12/15 09:56:44;;;;;;;25.30;17.10;;;7.20;99.90;;;;;;5076114;28;20469;-71
2020/12/15 09:59:11;;;;;;;23.93;15.30;;;7.20;99.90;;;;;;5074988;28;20916;-71
2020/12/15 10:01:39;;;;;;;25.87;17.67;;;7.20;99.90;;;;;;5075164;28;20485;-61
2020/12/15 10:04:05;;;;;;;22.13;15.83;;;7.20;99.90;;;;;;5075914;28;20458;-60
2020/12/15 10:06:31;;;;;;;26.03;15.00;;;7.30;99.90;;;;;;5075612;28;20520;-60
2020/12/15 10:08:58;;;;;;;26.33;17.20;;;7.40;99.90;;;;;;5075245;28;20469;-61
2020/12/15 10:11:25;;;;;;;23.27;16.80;;;7.40;99.90;;;;;;5074844;28;20976;-60
2020/12/15 10:13:52;;;;;;;22.17;15.13;;;7.40;99.90;;;;;;5075212;28;20458;-60
2020/12/15 10:16:19;;;;;;;24.37;15.97;;;7.20;99.90;;;;;;5076078;28;20465;-60
2020/12/15 10:18:45;;;;;;;22.73;16.00;;;7.20;99.90;;;;;;5075240;28;20458;-72
2020/12/15 10:21:11;;;;;;;23.07;15.60;;;7.20;99.90;;;;;;5075171;28;20524;-73
2020/12/15 10:23:37;;;;;;;23.13;16.30;;;7.20;99.90;;;;;;5075369;28;20462;-71
2020/12/15 10:26:04;;;;;;;28.20;16.70;;;7.10;99.90;;;;;;5075156;28;20472;-73
2020/12/15 10:28:30;;;;;;;24.77;15.60;;;7.20;99.90;;;;;;5075286;28;20932;-72
2020/12/15 10:30:56;;;;;;;38.53;17.27;;;7.20;99.90;;;;;;5075205;28;20781;-72
2020/12/15 10:33:23;;;;;;;33.07;16.90;;;7.20;99.90;;;;;;5075141;28;20582;-71
2020/12/15 10:35:49;;;;;;;24.50;16.70;;;7.20;99.90;;;;;;5075297;28;20454;-71
2020/12/15 10:38:16;;;;;;;22.10;16.23;;;7.20;99.90;;;;;;5075377;28;20528;-67
2020/12/15 10:40:43;;;;;;;19.20;14.23;;;7.20;99.90;;;;;;5074865;28;20573;-58
2020/12/15 10:43:13;;;;;;;25.87;15.90;;;7.30;99.90;;;;;;5075318;28;20454;-57
2020/12/15 10:45:39;;;;;;;25.10;16.10;;;7.30;99.90;;;;;;5075065;28;20446;-59
2020/12/15 10:48:06;;;;;;;20.67;15.00;;;7.20;99.90;;;;;;5075088;28;20458;-59
2020/12/15 10:50:33;;;;;;;20.70;15.30;;;7.20;99.90;;;;;;5074326;28;20553;-59
2020/12/15 10:52:59;;;;;;;21.27;15.53;;;7.30;99.90;;;;;;5074612;28;20451;-60
2020/12/15 10:55:25;;;;;;;22.30;15.37;;;7.40;99.90;;;;;;5075036;28;20458;-60
2020/12/15 10:57:51;;;;;;;19.50;15.20;;;7.50;99.90;;;;;;5074795;28;20569;-59
2020/12/15 11:00:17;;;;;;;23.23;15.47;;;7.50;99.90;;;;;;5075061;28;20474;-60
2020/12/15 11:02:43;;;;;;;22.60;15.13;;;7.50;99.90;;;;;;5075234;28;20458;-59
2020/12/15 11:05:09;;;;;;;18.87;14.57;;;7.60;99.90;;;;;;5074388;28;20483;-58
2020/12/15 11:07:36;;;;;;;25.57;16.30;;;7.60;99.90;;;;;;5074727;28;20449;-58
2020/12/15 11:10:02;;;;;;;23.27;15.77;;;7.60;99.90;;;;;;5074744;28;20529;-59
2020/12/15 11:12:29;;;;;;;24.20;15.77;;;7.70;99.90;;;;;;5074972;28;20519;-59
2020/12/15 11:14:55;;;;;;;20.80;15.50;;;7.70;99.90;;;;;;5076909;28;20453;-58
2020/12/15 11:17:21;;;;;;;22.00;15.23;;;7.70;99.90;;;;;;5078646;28;20469;-57
2020/12/15 11:19:47;;;;;;;21.83;15.73;;;7.70;99.90;;;;;;5079517;28;20481;-57
2020/12/15 11:22:13;;;;;;;22.23;14.00;;;7.70;99.90;;;;;;5079174;28;20919;-59
2020/12/15 11:24:40;;;;;;;19.00;14.00;;;7.60;99.90;;;;;;5079303;28;20458;-60
2020/12/15 11:27:06;;;;;;;22.33;14.77;;;7.60;99.90;;;;;;5079017;28;20774;-57
2020/12/15 11:29:33;;;;;;;21.47;14.90;;;7.60;99.90;;;;;;5080107;28;20458;-61
2020/12/15 11:32:02;;;;;;;25.07;14.50;;;7.70;99.90;;;;;;5079158;28;20465;-57
2020/12/15 11:34:28;;;;;;;23.60;15.60;;;7.70;99.90;;;;;;5079347;28;20458;-60
2020/12/15 11:36:54;;;;;;;22.70;15.20;;;7.70;99.90;;;;;;5079125;28;20481;-58
2020/12/15 11:39:21;;;;;;;20.07;15.23;;;7.70;99.90;;;;;;5080456;28;20763;-58
2020/12/15 11:41:48;;;;;;;23.60;14.80;;;7.70;99.90;;;;;;5079483;28;20458;-58
2020/12/15 11:44:18;;;;;;;23.93;14.50;;;7.70;99.90;;;;;;5080258;28;20462;-58
2020/12/15 11:46:44;;;;;;;20.17;13.23;;;7.70;99.90;;;;;;5079338;28;20481;-58
2020/12/15 11:49:10;;;;;;;22.43;14.90;;;7.70;99.90;;;;;;5077942;28;20519;-66
2020/12/15 11:51:36;;;;;;;22.00;15.30;;;7.80;99.90;;;;;;5079179;28;20458;-67
2020/12/15 11:54:03;;;;;;;18.60;13.67;;;7.90;99.90;;;;;;5079976;28;20542;-69
2020/12/15 12:30:53;;;;;;;20.57;13.37;;;8.80;99.90;;;;;;4920393;28;20451;-59
2020/12/15 12:33:19;;;;;;;20.40;14.27;;;8.80;99.90;;;;;;5077694;28;20899;-60
2020/12/15 12:35:51;;;;;;;17.40;13.13;;;8.70;99.90;;;;;;5078118;28;20507;-58
2020/12/15 12:38:18;;;;;;;21.97;13.50;;;8.60;99.90;;;;;;5079690;28;20481;-61
2020/12/15 12:40:44;;;;;;;17.80;13.10;;;8.70;99.90;;;;;;5078997;28;20486;-58
2020/12/15 12:43:10;;;;;;;20.10;14.27;;;8.60;99.90;;;;;;5079079;28;20470;-58
2020/12/15 12:45:40;;;;;;;18.37;12.83;;;8.60;99.90;;;;;;5078475;28;20465;-59
2020/12/15 12:48:07;;;;;;;17.60;13.63;;;8.50;99.90;;;;;;5077794;28;20450;-58
2020/12/15 12:50:33;;;;;;;21.33;13.13;;;8.50;99.90;;;;;;5077724;28;20458;-57
2020/12/15 12:53:00;;;;;;;22.60;12.57;;;8.40;99.90;;;;;;5078259;28;20462;-59
2020/12/15 12:55:26;;;;;;;19.43;14.20;;;8.40;99.90;;;;;;5078662;28;20587;-58
2020/12/15 12:57:53;;;;;;;18.37;13.50;;;8.40;99.90;;;;;;5078672;28;20539;-57
2020/12/15 13:00:20;;;;;;;17.60;12.10;;;8.50;99.90;;;;;;5078050;28;20477;-59
2020/12/15 13:02:46;;;;;;;18.07;12.77;;;8.50;99.90;;;;;;5080818;28;20458;-57
2020/12/15 13:05:13;;;;;;;18.07;12.50;;;8.40;99.90;;;;;;5078928;28;20454;-59
2020/12/15 13:07:41;;;;;;;21.23;13.57;;;8.40;99.90;;;;;;5078861;28;20485;-62
2020/12/15 13:10:07;;;;;;;15.60;11.23;;;8.40;99.90;;;;;;5078431;28;20465;-59